createdAt,value
2022-12-03T00:00:18.668Z,18.50
2022-12-03T00:02:53.594Z,19.57
2022-12-03T00:05:28.532Z,16.83
2022-12-03T00:08:03.876Z,19.53
2022-12-03T00:10:38.807Z,21.40
2022-12-03T00:13:13.704Z,20.33
2022-12-03T00:15:48.588Z,19.20
2022-12-03T00:18:23.459Z,21.90
2022-12-03T00:20:58.347Z,20.70
2022-12-03T00:23:35.950Z,19.50
2022-12-03T00:26:15.062Z,22.53
2022-12-03T00:28:49.945Z,21.20
2022-12-03T00:31:25.757Z,19.70
2022-12-03T00:34:00.630Z,18.80
2022-12-03T00:36:35.503Z,20.50
2022-12-03T00:39:10.354Z,21.33
2022-12-03T00:41:45.374Z,20.87
2022-12-03T00:44:20.238Z,17.10
2022-12-03T00:46:55.175Z,21.10
2022-12-03T00:49:30.076Z,23.67
2022-12-03T00:52:04.986Z,21.17
2022-12-03T00:54:39.844Z,17.40
2022-12-03T00:57:14.785Z,17.37
2022-12-03T00:59:49.603Z,18.70
2022-12-03T01:02:24.572Z,21.13
2022-12-03T01:04:59.670Z,16.13
2022-12-03T01:07:34.873Z,21.67
2022-12-03T01:10:10.633Z,20.07
2022-12-03T01:12:45.484Z,20.07
2022-12-03T01:15:20.388Z,26.40
2022-12-03T01:17:55.288Z,22.93
2022-12-03T01:20:30.189Z,20.70
2022-12-03T01:23:05.532Z,21.20
2022-12-03T01:25:40.446Z,18.30
2022-12-03T01:28:15.305Z,22.23
2022-12-03T01:31:08.736Z,23.23
2022-12-03T01:33:43.785Z,20.47
2022-12-03T01:36:18.669Z,21.43
2022-12-03T01:38:53.613Z,18.67
2022-12-03T01:41:29.344Z,21.67
2022-12-03T01:44:15.649Z,20.30
2022-12-03T01:46:52.267Z,19.83
2022-12-03T01:49:50.016Z,17.00
2022-12-03T01:52:32.826Z,19.17
2022-12-03T01:55:16.475Z,18.70
2022-12-03T01:57:56.299Z,19.50
2022-12-03T02:00:31.660Z,19.03
2022-12-03T02:03:22.742Z,17.20
2022-12-03T02:05:57.690Z,17.03
2022-12-03T02:08:39.100Z,17.90
2022-12-03T02:11:24.929Z,15.83
2022-12-03T02:14:06.736Z,16.30
2022-12-03T02:16:42.833Z,16.57
2022-12-03T02:19:27.791Z,12.90
2022-12-03T02:22:29.780Z,13.40
2022-12-03T02:25:19.882Z,13.60
2022-12-03T02:27:55.693Z,15.07
2022-12-03T02:30:31.671Z,11.60
2022-12-03T02:33:06.824Z,14.17
2022-12-03T02:35:41.843Z,13.77
2022-12-03T02:38:26.636Z,15.73
2022-12-03T02:41:07.615Z,13.30
2022-12-03T02:43:42.523Z,13.67
2022-12-03T02:46:17.438Z,14.13
2022-12-03T02:48:52.562Z,16.93
2022-12-03T02:51:27.596Z,13.33
2022-12-03T02:54:03.489Z,12.43
2022-12-03T02:56:38.511Z,13.23
2022-12-03T02:59:13.444Z,12.97
2022-12-03T03:01:48.490Z,13.23
2022-12-03T03:04:24.937Z,13.00
2022-12-03T03:06:59.955Z,13.43
2022-12-03T03:09:35.201Z,14.63
2022-12-03T03:12:10.804Z,15.57
2022-12-03T03:14:45.977Z,13.23
2022-12-03T03:17:20.980Z,13.57
2022-12-03T03:19:55.899Z,12.53
2022-12-03T03:22:41.061Z,13.60
2022-12-03T03:25:21.137Z,10.20
2022-12-03T03:27:56.023Z,13.10
2022-12-03T03:30:31.153Z,14.57
2022-12-03T03:33:06.728Z,13.17
2022-12-03T03:35:43.673Z,16.27
2022-12-03T03:38:20.591Z,13.10
2022-12-03T03:40:58.614Z,14.90
2022-12-03T03:43:35.266Z,16.23
2022-12-03T03:46:11.254Z,15.20
2022-12-03T03:48:48.598Z,14.00
2022-12-03T03:51:23.616Z,15.27
2022-12-03T03:53:58.806Z,11.60
2022-12-03T03:56:34.705Z,18.63
2022-12-03T03:59:09.696Z,17.63
2022-12-03T04:01:46.298Z,14.17
2022-12-03T04:04:24.233Z,13.00
2022-12-03T04:06:59.373Z,15.10
2022-12-03T04:09:34.260Z,17.30
2022-12-03T04:12:30.437Z,17.20
2022-12-03T04:15:06.415Z,17.07
2022-12-03T04:17:41.310Z,19.40
2022-12-03T04:20:16.958Z,17.57
2022-12-03T04:22:51.843Z,18.93
2022-12-03T04:25:45.079Z,19.30
2022-12-03T04:28:38.567Z,19.73
2022-12-03T04:31:31.847Z,21.53
2022-12-03T04:34:25.389Z,18.40
2022-12-03T04:37:00.306Z,17.60
2022-12-03T04:39:35.496Z,16.93
2022-12-03T04:42:10.467Z,17.00
2022-12-03T04:44:45.409Z,17.60
2022-12-03T04:47:21.838Z,19.63
2022-12-03T04:49:56.691Z,20.53
2022-12-03T04:52:31.544Z,20.07
2022-12-03T04:55:07.662Z,20.00
2022-12-03T04:57:42.579Z,18.47
2022-12-03T05:00:17.748Z,19.47
2022-12-03T05:02:52.823Z,18.57
2022-12-03T05:05:27.757Z,20.40
2022-12-03T05:08:02.641Z,22.83
2022-12-03T05:10:38.001Z,20.43
2022-12-03T05:13:12.891Z,19.47
2022-12-03T05:15:47.783Z,19.60
2022-12-03T05:18:22.673Z,18.63
2022-12-03T05:20:57.571Z,22.37
2022-12-03T05:23:32.478Z,19.90
2022-12-03T05:26:07.440Z,21.30
2022-12-03T05:28:42.348Z,23.40
2022-12-03T05:31:17.422Z,22.23
2022-12-03T05:33:52.411Z,23.90
2022-12-03T05:36:27.434Z,22.90
2022-12-03T05:39:02.289Z,19.80
2022-12-03T05:41:55.860Z,21.10
2022-12-03T05:44:30.739Z,24.43
2022-12-03T05:47:06.024Z,23.67
2022-12-03T05:49:41.106Z,20.00
2022-12-03T05:52:16.092Z,21.30
2022-12-03T05:54:51.303Z,21.20
2022-12-03T05:57:26.347Z,21.27
2022-12-03T06:00:01.252Z,23.87
2022-12-03T06:02:36.445Z,27.20
2022-12-03T06:05:13.771Z,20.93
2022-12-03T06:07:50.804Z,21.10
2022-12-03T06:10:26.447Z,19.37
2022-12-03T06:13:02.144Z,21.67
2022-12-03T06:15:43.307Z,19.07
2022-12-03T06:18:18.768Z,16.80
2022-12-03T06:20:53.670Z,26.00
2022-12-03T06:23:28.549Z,20.03
2022-12-03T06:26:03.604Z,24.87
2022-12-03T06:28:38.895Z,24.33
2022-12-03T06:31:14.192Z,22.00
2022-12-03T06:33:49.195Z,22.50
2022-12-03T06:36:26.682Z,27.33
2022-12-03T06:39:01.627Z,25.23
2022-12-03T06:41:36.621Z,26.37
2022-12-03T06:44:11.591Z,28.70
2022-12-03T06:46:46.578Z,21.83
2022-12-03T06:49:21.558Z,28.63
2022-12-03T06:51:56.451Z,28.40
2022-12-03T06:54:31.517Z,29.90
2022-12-03T06:57:06.467Z,27.27
2022-12-03T06:59:41.509Z,26.60
2022-12-03T07:02:16.411Z,28.47
2022-12-03T07:04:51.555Z,24.13
2022-12-03T07:07:26.599Z,26.37
2022-12-03T07:10:01.659Z,30.20
2022-12-03T07:12:36.623Z,27.80
2022-12-03T07:15:11.728Z,29.17
2022-12-03T07:17:46.677Z,27.53
2022-12-03T07:20:23.612Z,30.60
2022-12-03T07:22:58.551Z,26.17
2022-12-03T07:25:33.494Z,28.50
2022-12-03T07:28:08.403Z,31.37
2022-12-03T07:30:43.346Z,30.23
2022-12-03T07:33:18.306Z,25.20
2022-12-03T07:35:53.588Z,29.33
2022-12-03T07:38:28.487Z,26.87
2022-12-03T07:41:03.541Z,26.60
2022-12-03T07:43:38.625Z,29.10
2022-12-03T07:46:13.642Z,26.80
2022-12-03T07:48:48.726Z,25.50
2022-12-03T07:51:27.482Z,25.47
2022-12-03T07:54:07.115Z,23.63
2022-12-03T07:56:42.552Z,28.00
2022-12-03T07:59:18.120Z,29.03
2022-12-03T08:01:53.213Z,29.40
2022-12-03T08:04:28.618Z,29.97
2022-12-03T08:07:03.615Z,29.47
2022-12-03T08:09:40.942Z,27.57
2022-12-03T08:12:39.851Z,30.53
2022-12-03T08:15:23.734Z,25.00
2022-12-03T08:18:00.738Z,28.33
2022-12-03T08:20:41.460Z,29.30
2022-12-03T08:23:19.825Z,25.87
2022-12-03T08:25:54.836Z,29.23
2022-12-03T08:28:31.281Z,24.47
2022-12-03T08:31:32.349Z,24.03
2022-12-03T08:34:27.091Z,29.07
2022-12-03T08:37:15.827Z,31.87
2022-12-03T08:39:54.611Z,31.30
2022-12-03T08:42:41.789Z,26.50
2022-12-03T08:45:30.234Z,24.97
2022-12-03T08:48:39.273Z,26.03
2022-12-03T08:51:25.175Z,24.50
2022-12-03T08:54:11.220Z,31.07
2022-12-03T08:56:46.087Z,36.60
2022-12-03T08:59:25.969Z,28.97
2022-12-03T09:02:00.898Z,26.97
2022-12-03T09:04:47.776Z,30.67
2022-12-03T09:07:22.719Z,27.40
2022-12-03T09:09:57.611Z,26.13
2022-12-03T09:12:32.475Z,25.57
2022-12-03T09:15:08.384Z,25.30
2022-12-03T09:17:43.402Z,23.73
2022-12-03T09:20:18.308Z,26.97
2022-12-03T09:22:53.200Z,26.53
2022-12-03T09:25:28.094Z,23.97
2022-12-03T09:28:02.971Z,23.00
2022-12-03T09:30:38.173Z,22.40
2022-12-03T09:33:13.984Z,28.60
2022-12-03T09:35:48.951Z,27.13
2022-12-03T09:38:23.878Z,24.77
2022-12-03T09:40:59.935Z,24.33
2022-12-03T09:44:02.622Z,25.30
2022-12-03T09:46:30.510Z,28.23
2022-12-03T09:49:13.983Z,21.80
2022-12-03T09:51:50.692Z,20.80
2022-12-03T09:54:29.286Z,21.57
2022-12-03T09:57:04.550Z,23.70
2022-12-03T09:59:39.501Z,19.57
2022-12-03T10:02:26.924Z,21.03
2022-12-03T10:05:02.045Z,21.03
2022-12-03T10:07:37.761Z,23.03
2022-12-03T10:10:22.832Z,17.60
2022-12-03T10:12:57.744Z,20.77
2022-12-03T10:15:33.393Z,26.70
2022-12-03T10:18:30.631Z,20.37
2022-12-03T10:21:19.205Z,23.00
2022-12-03T10:24:22.998Z,23.13
2022-12-03T10:27:03.068Z,22.00
2022-12-03T10:29:38.158Z,21.70
2022-12-03T10:32:13.188Z,20.77
2022-12-03T10:34:48.087Z,21.30
2022-12-03T10:37:23.171Z,21.87
2022-12-03T10:40:12.174Z,18.27
2022-12-03T10:42:47.083Z,20.87
2022-12-03T10:45:23.556Z,21.83
2022-12-03T10:48:21.064Z,18.23
2022-12-03T10:51:03.921Z,22.30
2022-12-03T10:53:41.083Z,20.00
2022-12-03T10:56:26.571Z,20.73
2022-12-03T10:59:01.438Z,19.40
2022-12-03T11:01:36.842Z,22.67
2022-12-03T11:04:22.119Z,19.37
2022-12-03T11:06:57.032Z,18.40
2022-12-03T11:09:33.534Z,21.07
2022-12-03T11:12:27.033Z,19.87
2022-12-03T11:15:06.635Z,23.10
2022-12-03T11:17:47.498Z,20.00
2022-12-03T11:20:25.056Z,24.47
2022-12-03T11:23:00.412Z,22.73
2022-12-03T11:25:47.841Z,24.73
2022-12-03T11:28:32.961Z,22.83
2022-12-03T11:31:12.178Z,23.00
2022-12-03T11:33:47.111Z,20.40
2022-12-03T11:36:42.076Z,21.40
2022-12-03T11:39:51.741Z,22.43
2022-12-03T11:42:39.272Z,20.97
2022-12-03T11:45:37.282Z,18.63
2022-12-03T11:48:15.181Z,17.90
2022-12-03T11:50:53.038Z,20.10
2022-12-03T11:53:35.826Z,18.80
2022-12-03T11:56:27.136Z,15.83
2022-12-03T11:59:11.390Z,15.40
2022-12-03T12:01:46.931Z,15.10
2022-12-03T12:04:37.945Z,16.70
2022-12-03T12:07:12.910Z,15.50
2022-12-03T12:09:55.198Z,16.73
2022-12-03T12:12:51.074Z,13.60
2022-12-03T12:15:44.304Z,14.60
2022-12-03T12:18:51.155Z,16.60
2022-12-03T12:21:47.788Z,14.43
2022-12-03T12:24:28.859Z,13.23
2022-12-03T12:27:29.518Z,15.03
2022-12-03T12:30:17.089Z,15.40
2022-12-03T12:33:23.351Z,16.33
2022-12-03T12:35:58.359Z,15.93
2022-12-03T12:38:33.262Z,16.90
2022-12-03T12:41:10.460Z,14.60
2022-12-03T12:43:45.424Z,18.90
2022-12-03T12:46:46.560Z,15.20
2022-12-03T12:49:15.875Z,16.03
2022-12-03T12:51:50.968Z,16.40
2022-12-03T12:54:25.859Z,17.80
2022-12-03T12:57:00.779Z,16.63
2022-12-03T12:59:35.868Z,13.93
2022-12-03T13:02:58.732Z,18.27
2022-12-03T13:05:41.567Z,14.47
2022-12-03T13:08:40.534Z,16.57
2022-12-03T13:11:42.145Z,15.70
2022-12-03T13:14:23.892Z,19.70
2022-12-03T13:17:01.759Z,16.83
2022-12-03T13:19:48.306Z,16.87
2022-12-03T13:22:25.805Z,17.60
2022-12-03T13:28:33.689Z,18.13
2022-12-03T13:31:40.592Z,18.33
2022-12-03T13:34:33.402Z,17.67
2022-12-03T13:37:34.133Z,19.67
2022-12-03T13:40:27.679Z,18.23
2022-12-03T13:43:12.296Z,18.60
2022-12-03T13:45:51.361Z,18.57
2022-12-03T13:48:32.171Z,21.23
2022-12-03T13:51:31.923Z,16.10
2022-12-03T13:54:16.217Z,22.47
2022-12-03T13:56:51.248Z,19.20
2022-12-03T13:59:26.552Z,19.83
2022-12-03T14:02:01.508Z,15.00
2022-12-03T14:04:36.604Z,22.80
2022-12-03T14:07:11.473Z,17.70
2022-12-03T14:09:46.359Z,17.60
2022-12-03T14:12:26.981Z,21.07
2022-12-03T14:15:04.631Z,18.57
2022-12-03T14:17:39.543Z,18.40
2022-12-03T14:20:15.589Z,22.00
2022-12-03T14:22:52.941Z,22.50
2022-12-03T14:25:32.592Z,19.27
2022-12-03T14:28:10.302Z,20.10
2022-12-03T14:30:45.229Z,21.53
2022-12-03T14:33:20.114Z,17.20
2022-12-03T14:35:56.232Z,21.33
2022-12-03T14:38:31.391Z,21.83
2022-12-03T14:41:26.352Z,19.23
2022-12-03T14:44:01.228Z,17.63
2022-12-03T14:46:36.143Z,21.03
2022-12-03T14:49:11.262Z,18.87
2022-12-03T14:51:46.146Z,18.83
2022-12-03T14:54:21.897Z,22.90
2022-12-03T14:56:56.953Z,18.13
2022-12-03T14:59:31.899Z,23.67
2022-12-03T15:02:07.121Z,19.23
2022-12-03T15:04:42.402Z,20.43
2022-12-03T15:07:17.302Z,16.17
2022-12-03T15:09:52.540Z,23.40
2022-12-03T15:12:27.681Z,20.60
2022-12-03T15:15:02.561Z,15.23
2022-12-03T15:17:37.481Z,16.10
2022-12-03T15:20:13.021Z,17.13
2022-12-03T15:22:47.946Z,12.83
2022-12-03T15:25:25.562Z,18.53
2022-12-03T15:28:00.774Z,13.37
2022-12-03T15:30:36.105Z,14.10
2022-12-03T15:33:11.228Z,18.27
2022-12-03T15:35:46.268Z,14.67
2022-12-03T15:38:21.417Z,17.63
2022-12-03T15:40:56.764Z,19.40
2022-12-03T15:43:31.733Z,16.83
2022-12-03T15:46:06.758Z,14.40
2022-12-03T15:48:41.975Z,18.07
2022-12-03T15:51:17.217Z,18.37
2022-12-03T15:53:52.302Z,14.07
2022-12-03T15:56:27.248Z,17.43
2022-12-03T15:59:02.291Z,15.17
2022-12-03T16:01:37.290Z,17.83
2022-12-03T16:04:12.332Z,16.17
2022-12-03T16:06:47.474Z,13.80
2022-12-03T16:09:26.937Z,16.00
2022-12-03T16:12:02.232Z,17.23
2022-12-03T16:14:37.246Z,16.67
2022-12-03T16:17:12.279Z,15.37
2022-12-03T16:19:47.494Z,16.83
2022-12-03T16:22:22.437Z,16.23
2022-12-03T16:24:57.397Z,11.93
2022-12-03T16:27:32.742Z,13.07
2022-12-03T16:30:08.873Z,16.40
2022-12-03T16:32:44.133Z,14.20
2022-12-03T16:35:19.220Z,15.33
2022-12-03T16:37:54.267Z,16.80
2022-12-03T16:40:29.213Z,16.03
2022-12-03T16:43:04.928Z,15.30
2022-12-03T16:45:42.480Z,13.63
2022-12-03T16:48:18.707Z,14.00
2022-12-03T16:50:53.876Z,10.50
2022-12-03T16:53:28.870Z,13.53
2022-12-03T16:56:04.042Z,12.50
2022-12-03T16:58:39.143Z,17.57
2022-12-03T17:01:14.451Z,13.00
2022-12-03T17:03:49.502Z,16.37
2022-12-03T17:06:24.560Z,15.53
2022-12-03T17:08:59.653Z,14.43
2022-12-03T17:11:34.570Z,13.33
2022-12-03T17:14:09.535Z,14.40
2022-12-03T17:16:44.514Z,13.57
2022-12-03T17:19:21.544Z,14.10
2022-12-03T17:21:56.497Z,16.47
2022-12-03T17:24:31.709Z,16.67
2022-12-03T17:27:07.877Z,14.93
2022-12-03T17:29:42.928Z,16.43
2022-12-03T17:32:17.820Z,16.10
2022-12-03T17:34:52.884Z,13.80
2022-12-03T17:37:27.782Z,13.13
2022-12-03T17:40:06.626Z,15.17
2022-12-03T17:42:41.625Z,15.27
2022-12-03T17:45:16.670Z,16.33
2022-12-03T17:47:51.683Z,16.37
2022-12-03T17:50:26.585Z,15.57
2022-12-03T17:53:03.759Z,17.80
2022-12-03T17:55:44.512Z,20.53
2022-12-03T17:58:20.412Z,17.90
2022-12-03T18:01:01.824Z,16.07
2022-12-03T18:03:38.307Z,17.10
2022-12-03T18:06:13.345Z,15.20
2022-12-03T18:08:48.275Z,18.20
2022-12-03T18:11:23.539Z,14.97
2022-12-03T18:13:58.741Z,22.63
2022-12-03T18:16:33.789Z,15.57
2022-12-03T18:19:08.722Z,15.37
2022-12-03T18:21:43.634Z,18.07
2022-12-03T18:24:18.508Z,19.70
2022-12-03T18:26:53.387Z,18.23
2022-12-03T18:29:28.309Z,16.67
2022-12-03T18:32:03.379Z,17.97
2022-12-03T18:34:38.285Z,18.33
2022-12-03T18:37:14.269Z,22.67
2022-12-03T18:39:49.278Z,18.50
2022-12-03T18:42:24.667Z,18.90
2022-12-03T18:44:59.774Z,16.83
2022-12-03T18:47:34.740Z,19.77
2022-12-03T18:50:11.788Z,22.17
2022-12-03T18:52:46.643Z,22.50
2022-12-03T18:55:22.186Z,21.30
2022-12-03T18:57:57.098Z,21.83
2022-12-03T19:00:32.383Z,17.97
2022-12-03T19:03:08.039Z,17.23
2022-12-03T19:05:42.979Z,20.60
2022-12-03T19:08:19.236Z,20.27
2022-12-03T19:10:59.781Z,21.10
2022-12-03T19:13:34.714Z,19.77
2022-12-03T19:16:12.116Z,21.50
2022-12-03T19:18:47.081Z,25.17
2022-12-03T19:21:22.242Z,23.80
2022-12-03T19:24:23.211Z,24.50
2022-12-03T19:26:54.760Z,24.60
2022-12-03T19:29:29.775Z,23.43
2022-12-03T19:32:05.282Z,21.43
2022-12-03T19:34:40.493Z,27.47
2022-12-03T19:37:15.536Z,23.80
2022-12-03T19:39:54.235Z,21.90
2022-12-03T19:42:31.085Z,23.90
2022-12-03T19:45:07.452Z,22.63
2022-12-03T19:47:42.400Z,19.90
2022-12-03T19:50:22.666Z,23.40
2022-12-03T19:52:58.044Z,24.00
2022-12-03T19:55:35.439Z,23.00
2022-12-03T19:58:10.317Z,22.73
2022-12-03T20:00:45.276Z,22.03
2022-12-03T20:03:21.449Z,27.87
2022-12-03T20:05:59.913Z,24.37
2022-12-03T20:08:38.126Z,29.83
2022-12-03T20:11:22.814Z,25.73
2022-12-03T20:14:01.296Z,24.50
2022-12-03T20:16:36.683Z,25.80
2022-12-03T20:19:15.283Z,25.43
2022-12-03T20:21:50.132Z,26.63
2022-12-03T20:24:25.194Z,26.50
2022-12-03T20:27:00.102Z,23.57
2022-12-03T20:29:35.085Z,26.83
2022-12-03T20:32:10.209Z,25.07
2022-12-03T20:34:45.270Z,29.97
2022-12-03T20:37:20.164Z,27.40
2022-12-03T20:39:55.419Z,25.80
2022-12-03T20:42:30.605Z,28.43
2022-12-03T20:45:06.282Z,30.27
2022-12-03T20:47:41.562Z,25.17
2022-12-03T20:50:16.496Z,21.23
2022-12-03T20:53:09.737Z,29.03
2022-12-03T20:55:55.049Z,28.60
2022-12-03T20:58:31.547Z,25.77
2022-12-03T21:01:15.587Z,27.87
2022-12-03T21:03:53.228Z,28.40
2022-12-03T21:06:29.957Z,27.30
2022-12-03T21:09:07.321Z,26.53
2022-12-03T21:11:42.686Z,27.67
2022-12-03T21:14:17.688Z,27.73
2022-12-03T21:17:07.678Z,30.57
2022-12-03T21:19:43.542Z,26.87
2022-12-03T21:22:18.519Z,26.90
2022-12-03T21:24:53.445Z,27.43
2022-12-03T21:27:28.493Z,27.27
2022-12-03T21:30:04.040Z,23.43
2022-12-03T21:32:39.784Z,31.70
2022-12-03T21:35:14.818Z,24.47
2022-12-03T21:37:50.192Z,26.73
2022-12-03T21:40:25.337Z,25.60
2022-12-03T21:43:00.292Z,27.87
2022-12-03T21:45:35.125Z,26.73
2022-12-03T21:48:10.609Z,27.73
2022-12-03T21:50:46.056Z,25.20
2022-12-03T21:53:20.900Z,26.20
2022-12-03T21:55:56.167Z,28.53
2022-12-03T21:58:31.055Z,32.87
2022-12-03T22:01:20.164Z,27.07
2022-12-03T22:03:55.253Z,25.10
2022-12-03T22:06:30.222Z,26.23
2022-12-03T22:09:05.111Z,26.57
2022-12-03T22:11:40.037Z,28.47
2022-12-03T22:14:15.037Z,26.77
2022-12-03T22:16:49.917Z,27.43
2022-12-03T22:19:25.748Z,28.40
2022-12-03T22:22:00.616Z,24.23
2022-12-03T22:24:35.530Z,31.20
2022-12-03T22:27:10.404Z,30.13
2022-12-03T22:29:45.301Z,22.73
2022-12-03T22:32:20.264Z,28.20
2022-12-03T22:34:55.163Z,26.17
2022-12-03T22:37:30.016Z,22.40
2022-12-03T22:40:05.754Z,27.23
2022-12-03T22:42:40.666Z,21.00
2022-12-03T22:45:15.618Z,24.43
2022-12-03T22:47:50.490Z,25.73
2022-12-03T22:50:25.371Z,24.67
2022-12-03T22:53:00.362Z,22.30
2022-12-03T22:55:35.254Z,23.67
2022-12-03T22:58:11.012Z,25.10
2022-12-03T23:00:45.888Z,23.57
2022-12-03T23:03:22.072Z,25.90
2022-12-03T23:05:57.004Z,27.33
2022-12-03T23:08:31.853Z,24.33
2022-12-03T23:11:07.699Z,25.50
2022-12-03T23:13:42.740Z,24.77
2022-12-03T23:16:22.487Z,23.17
2022-12-03T23:18:59.799Z,24.10
2022-12-03T23:21:35.726Z,24.60
2022-12-03T23:24:10.635Z,23.57
2022-12-03T23:26:45.522Z,24.67
2022-12-03T23:29:20.488Z,27.10
2022-12-03T23:31:57.200Z,23.93
2022-12-03T23:34:32.142Z,24.90
2022-12-03T23:37:07.075Z,26.83
2022-12-03T23:39:42.050Z,19.27
2022-12-03T23:42:17.132Z,21.47
2022-12-03T23:44:52.097Z,20.70
2022-12-03T23:47:26.952Z,22.93
2022-12-03T23:50:02.519Z,23.17
2022-12-03T23:52:37.640Z,18.57
2022-12-03T23:55:12.490Z,16.80
2022-12-03T23:57:47.434Z,18.80
